Time;durP1;ratioP1;P1;durP2;ratioP2;P2;SDS_P1;SDS_P2;PMS_P1;PMS_P2;Temp;Humidity;BMP_temperature;BMP_pressure;BME280_temperature;BME280_humidity;BME280_pressure;Samples;Min_cycle;Max_cycle;Signal;HPM_P1;HPM_P2
2022/08/24 00:01:06;;;;;;;0.00;0.00;;;;;;;19.13;65.24;100661.34;4973349;28;20190;-72
2022/08/24 00:03:33;;;;;;;0.00;0.00;;;;;;;19.17;65.26;100657.47;4973325;28;20184;-72
2022/08/24 00:05:58;;;;;;;0.00;0.00;;;;;;;19.25;64.85;100647.38;4973490;28;20195;-72
2022/08/24 00:08:24;;;;;;;0.00;0.00;;;;;;;19.25;64.65;100650.13;4973544;28;20179;-72
2022/08/24 00:10:50;;;;;;;0.00;0.00;;;;;;;19.21;64.48;100660.31;4973021;28;20172;-72
2022/08/24 00:13:15;;;;;;;0.00;0.00;;;;;;;19.21;64.15;100657.56;4973080;28;20463;-72
2022/08/24 00:15:41;;;;;;;0.00;0.00;;;;;;;19.12;64.55;100655.00;4973027;28;20237;-72
2022/08/24 00:18:06;;;;;;;0.00;0.00;;;;;;;18.86;65.31;100650.09;4973227;28;20638;-72
2022/08/24 00:20:32;;;;;;;0.00;0.00;;;;;;;18.62;66.18;100658.63;4973245;28;20717;-72
2022/08/24 00:22:58;;;;;;;0.00;0.00;;;;;;;18.18;67.06;100650.47;4972647;28;20178;-72
2022/08/24 00:25:23;;;;;;;0.00;0.00;;;;;;;18.25;67.40;100658.16;4972651;28;20179;-72
2022/08/24 00:27:49;;;;;;;0.00;0.00;;;;;;;18.27;67.30;100656.63;4972938;28;20588;-72
2022/08/24 00:30:17;;;;;;;0.00;0.00;;;;;;;18.14;67.69;100657.88;4972961;28;20170;-72
2022/08/24 00:32:44;;;;;;;0.00;0.00;;;;;;;17.91;68.14;100654.09;4973161;28;20186;-72
2022/08/24 00:35:11;;;;;;;0.00;0.00;;;;;;;17.98;68.14;100652.34;4972713;28;20209;-73
2022/08/24 00:37:37;;;;;;;0.00;0.00;;;;;;;17.98;68.30;100652.34;4972776;28;20638;-72
2022/08/24 00:40:18;;;;;;;0.00;0.00;;;;;;;17.91;68.87;100651.34;4971675;28;20217;-72
2022/08/24 00:42:43;;;;;;;0.00;0.00;;;;;;;17.88;69.13;100652.88;4971580;28;20178;-72
2022/08/24 00:45:12;;;;;;;0.00;0.00;;;;;;;18.01;68.76;100653.59;4972490;28;20204;-72
2022/08/24 00:47:57;;;;;;;0.00;0.00;;;;;;;18.21;68.60;100648.94;4972555;28;20615;-73
2022/08/24 00:50:37;;;;;;;0.00;0.00;;;;;;;18.34;68.55;100654.00;4972557;28;20179;-72
2022/08/24 00:53:08;;;;;;;0.00;0.00;;;;;;;18.28;68.23;100649.13;4972678;28;20170;-73
2022/08/24 00:55:41;;;;;;;0.00;0.00;;;;;;;17.99;68.23;100642.88;4972005;28;20219;-72
2022/08/24 00:58:12;;;;;;;0.00;0.00;;;;;;;18.19;68.85;100656.78;4972446;28;20180;-72
2022/08/24 01:00:47;;;;;;;0.00;0.00;;;;;;;18.23;68.53;100652.97;4972395;28;20216;-73
2022/08/24 01:03:13;;;;;;;0.00;0.00;;;;;;;17.94;68.80;100651.47;4972072;28;20200;-72
2022/08/24 01:05:40;;;;;;;0.00;0.00;;;;;;;17.97;69.73;100655.47;4973239;28;20696;-72
2022/08/24 01:08:08;;;;;;;0.00;0.00;;;;;;;17.89;69.41;100645.38;4972161;28;20248;-72
2022/08/24 01:10:38;;;;;;;0.00;0.00;;;;;;;17.97;69.59;100656.28;4972525;28;20181;-72
2022/08/24 01:13:06;;;;;;;0.00;0.00;;;;;;;17.84;69.53;100657.50;4972769;28;20170;-72
2022/08/24 01:15:36;;;;;;;0.00;0.00;;;;;;;17.65;69.81;100657.34;4970956;28;20221;-72
2022/08/24 01:21:05;;;;;;;0.00;0.00;;;;;;;17.08;72.35;100651.06;4964036;28;20480;-72
2022/08/24 01:23:38;;;;;;;0.00;0.00;;;;;;;17.21;71.86;100649.84;4970464;28;20173;-72
2022/08/24 01:26:05;;;;;;;0.00;0.00;;;;;;;16.87;72.83;100655.91;4972411;28;20210;-72
2022/08/24 01:28:31;;;;;;;0.00;0.00;;;;;;;16.85;73.65;100653.50;4972343;28;20646;-72
2022/08/24 01:30:57;;;;;;;0.00;0.00;;;;;;;16.80;74.24;100655.72;4972757;28;20186;-72
2022/08/24 01:33:28;;;;;;;0.00;0.00;;;;;;;16.87;73.99;100658.69;4972298;28;20645;-72
2022/08/24 01:36:00;;;;;;;0.00;0.00;;;;;;;16.88;73.62;100655.56;4980575;28;20195;-72
2022/08/24 01:38:25;;;;;;;0.00;0.00;;;;;;;17.06;73.99;100650.56;4991612;28;20227;-72
2022/08/24 01:41:02;;;;;;;0.00;0.00;;;;;;;17.17;73.19;100664.69;4991675;28;20169;-72
2022/08/24 01:43:28;;;;;;;0.00;0.00;;;;;;;17.24;73.19;100656.63;4991404;28;20173;-72
2022/08/24 01:45:53;;;;;;;0.00;0.00;;;;;;;17.37;73.08;100660.16;4991594;28;20208;-72
2022/08/24 01:48:19;;;;;;;0.00;0.00;;;;;;;17.42;72.71;100655.16;4991368;28;20331;-72
2022/08/24 01:50:45;;;;;;;0.00;0.00;;;;;;;17.19;72.72;100649.38;4991663;28;20253;-72
2022/08/24 01:53:11;;;;;;;0.00;0.00;;;;;;;16.87;74.01;100653.16;4991616;28;20264;-72
2022/08/24 01:55:36;;;;;;;0.00;0.00;;;;;;;16.85;74.56;100658.22;4991002;28;20292;-72
2022/08/24 01:58:04;;;;;;;0.00;0.00;;;;;;;16.79;74.86;100659.63;4991437;28;20217;-72
2022/08/24 02:00:30;;;;;;;0.00;0.00;;;;;;;16.81;74.95;100660.88;4991538;28;20173;-72
2022/08/24 02:02:55;;;;;;;0.00;0.00;;;;;;;16.94;74.98;100658.91;4991272;28;20584;-72
2022/08/24 02:05:22;;;;;;;0.00;0.00;;;;;;;17.07;74.73;100670.69;4991194;28;20185;-72
2022/08/24 02:07:48;;;;;;;0.00;0.00;;;;;;;17.01;74.81;100669.34;4991424;28;20704;-72
2022/08/24 02:10:14;;;;;;;0.00;0.00;;;;;;;17.07;74.47;100670.69;4990157;28;20264;-72
2022/08/24 02:12:42;;;;;;;0.00;0.00;;;;;;;17.20;74.48;100664.78;4991419;28;20597;-72
2022/08/24 02:15:09;;;;;;;0.00;0.00;;;;;;;17.22;74.20;100670.78;4991012;28;20663;-72
2022/08/24 02:17:36;;;;;;;0.00;0.00;;;;;;;17.13;74.32;100664.59;4991144;28;20531;-72
2022/08/24 02:20:03;;;;;;;0.00;0.00;;;;;;;16.98;74.66;100675.56;4991678;28;20177;-72
2022/08/24 02:22:28;;;;;;;0.00;0.00;;;;;;;17.03;75.59;100681.63;4993760;28;20589;-72
2022/08/24 02:24:54;;;;;;;0.00;0.00;;;;;;;17.11;75.32;100685.44;4995028;28;20483;-72
2022/08/24 02:27:19;;;;;;;0.00;0.00;;;;;;;16.85;76.03;100674.78;4993707;28;20177;-72
2022/08/24 02:29:45;;;;;;;0.00;0.00;;;;;;;16.70;76.40;100681.03;4994991;28;20256;-72
2022/08/24 02:32:11;;;;;;;0.00;0.00;;;;;;;16.75;77.01;100689.06;4994952;28;20191;-72
2022/08/24 02:34:37;;;;;;;0.00;0.00;;;;;;;16.61;77.30;100684.66;4994837;28;20327;-73
2022/08/24 02:37:02;;;;;;;0.00;0.00;;;;;;;16.64;77.31;100695.03;4994965;28;20521;-73
2022/08/24 02:39:28;;;;;;;0.00;0.00;;;;;;;16.64;77.65;100688.72;4996249;28;20177;-73
2022/08/24 02:41:53;;;;;;;0.00;0.00;;;;;;;16.86;77.08;100691.00;4994894;28;20182;-73
2022/08/24 02:44:19;;;;;;;0.00;0.00;;;;;;;16.95;76.75;100691.69;4994598;28;20181;-73
2022/08/24 02:46:44;;;;;;;0.00;0.00;;;;;;;17.04;76.61;100697.06;4995163;28;20312;-73
2022/08/24 02:49:10;;;;;;;0.00;0.00;;;;;;;17.10;76.28;100695.66;4994806;28;20252;-73
2022/08/24 02:51:36;;;;;;;0.00;0.00;;;;;;;17.04;75.82;100696.25;4991677;28;20641;-73
2022/08/24 02:54:02;;;;;;;0.00;0.00;;;;;;;16.74;76.68;100690.22;4974747;28;20204;-73
2022/08/24 02:56:31;;;;;;;0.00;0.00;;;;;;;16.86;77.13;100691.00;4975187;28;20523;-73
2022/08/24 02:58:59;;;;;;;0.00;0.00;;;;;;;16.84;76.49;100695.25;4975036;28;20202;-73
2022/08/24 03:01:26;;;;;;;0.00;0.00;;;;;;;16.80;76.70;100705.41;4973678;28;20638;-74
2022/08/24 03:03:51;;;;;;;0.00;0.00;;;;;;;17.00;76.62;100698.09;4974855;28;20177;-73
2022/08/24 03:06:17;;;;;;;0.00;0.00;;;;;;;16.91;76.43;100696.25;4975233;28;20186;-74
2022/08/24 03:08:44;;;;;;;0.00;0.00;;;;;;;16.96;76.24;100700.75;4975004;28;20492;-73
2022/08/24 03:11:10;;;;;;;0.00;0.00;;;;;;;17.01;76.26;100703.28;4974870;28;20220;-73
2022/08/24 03:13:36;;;;;;;0.00;0.00;;;;;;;17.05;76.22;100703.38;4974683;28;20174;-73
2022/08/24 03:16:02;;;;;;;0.00;0.00;;;;;;;17.09;76.38;100704.31;4974671;28;20209;-73
2022/08/24 03:18:28;;;;;;;0.00;0.00;;;;;;;17.03;76.69;100700.97;4975038;28;20228;-73
2022/08/24 03:20:55;;;;;;;0.00;0.00;;;;;;;17.02;77.14;100704.06;4974745;28;20174;-74
2022/08/24 03:23:20;;;;;;;0.00;0.00;;;;;;;16.97;77.79;100705.13;4974359;28;20465;-73
2022/08/24 03:25:46;;;;;;;0.00;0.00;;;;;;;16.96;78.05;100714.56;4974663;28;20189;-73
2022/08/24 03:28:11;;;;;;;0.00;0.00;;;;;;;16.98;77.84;100712.25;4974514;28;20254;-73
2022/08/24 03:30:39;;;;;;;0.00;0.00;;;;;;;17.05;77.12;100706.94;4974011;28;20691;-74
2022/08/24 03:33:05;;;;;;;0.00;0.00;;;;;;;17.07;76.56;100712.09;4973842;28;20224;-73
2022/08/24 03:35:32;;;;;;;0.00;0.00;;;;;;;17.10;76.16;100700.38;4973719;28;20205;-73
2022/08/24 03:37:58;;;;;;;0.00;0.00;;;;;;;17.08;76.33;100705.47;4973789;28;20178;-73
2022/08/24 03:40:24;;;;;;;0.00;0.00;;;;;;;17.07;76.19;100707.41;4973890;28;20240;-73
2022/08/24 03:42:49;;;;;;;0.00;0.00;;;;;;;16.83;77.03;100704.69;4973914;28;20218;-73
2022/08/24 03:45:15;;;;;;;0.00;0.00;;;;;;;16.78;77.93;100700.22;4973428;28;20212;-73
2022/08/24 03:47:40;;;;;;;0.00;0.00;;;;;;;16.81;78.39;100707.81;4974009;28;20261;-73
2022/08/24 03:50:07;;;;;;;0.00;0.00;;;;;;;16.77;78.18;100709.63;4972399;28;20170;-73
2022/08/24 03:52:32;;;;;;;0.00;0.00;;;;;;;16.84;78.25;100715.38;4973485;28;20199;-73
2022/08/24 03:54:57;;;;;;;0.00;0.00;;;;;;;16.90;77.76;100708.47;4973148;28;20213;-74
2022/08/24 03:57:41;;;;;;;0.00;0.00;;;;;;;16.85;78.16;100702.38;4973683;28;20174;-73
2022/08/24 04:00:10;;;;;;;0.00;0.00;;;;;;;16.98;77.71;100716.97;4973629;28;20174;-73
2022/08/24 04:02:35;;;;;;;0.00;0.00;;;;;;;17.05;77.63;100717.19;4973558;28;20206;-73
2022/08/24 04:05:00;;;;;;;0.00;0.00;;;;;;;16.98;78.12;100712.25;4973631;28;20580;-73
2022/08/24 04:07:26;;;;;;;0.00;0.00;;;;;;;16.92;78.98;100711.69;4973362;28;20180;-73
2022/08/24 04:09:52;;;;;;;0.00;0.00;;;;;;;16.79;80.56;100709.31;4973799;28;20178;-73
2022/08/24 04:12:17;;;;;;;0.00;0.00;;;;;;;16.77;80.92;100715.16;4973467;28;20206;-73
2022/08/24 04:14:43;;;;;;;0.00;0.00;;;;;;;16.72;81.81;100711.81;4973263;28;20645;-73
2022/08/24 04:17:10;;;;;;;0.00;0.00;;;;;;;16.49;82.71;100714.19;4973125;28;20201;-74
2022/08/24 04:19:36;;;;;;;0.00;0.00;;;;;;;16.28;83.52;100717.88;4973122;28;20585;-73
2022/08/24 04:22:01;;;;;;;0.00;0.00;;;;;;;16.20;84.20;100718.81;4973086;28;20201;-73
2022/08/24 04:24:27;;;;;;;0.00;0.00;;;;;;;16.14;83.71;100716.59;4971658;28;20229;-73
2022/08/24 04:26:52;;;;;;;0.00;0.00;;;;;;;16.22;83.07;100716.50;4972969;28;20182;-73
2022/08/24 04:29:19;;;;;;;0.00;0.00;;;;;;;16.28;82.43;100714.31;4972951;28;20174;-74
2022/08/24 04:31:45;;;;;;;0.00;0.00;;;;;;;16.21;82.09;100716.84;4972797;28;20174;-73
2022/08/24 04:34:13;;;;;;;0.00;0.00;;;;;;;16.21;82.33;100716.84;4972617;28;20188;-73
2022/08/24 04:36:39;;;;;;;0.00;0.00;;;;;;;16.21;83.05;100714.91;4971526;28;20170;-73
2022/08/24 04:39:05;;;;;;;0.00;0.00;;;;;;;16.23;83.29;100717.31;4972781;28;20185;-73
2022/08/24 04:41:30;;;;;;;0.00;0.00;;;;;;;16.38;83.57;100724.09;4972782;28;20229;-72
2022/08/24 04:43:56;;;;;;;0.00;0.00;;;;;;;16.39;83.06;100720.19;4971926;28;20864;-73
2022/08/24 04:46:21;;;;;;;0.00;0.00;;;;;;;16.38;82.80;100724.91;4972520;28;20331;-74
2022/08/24 04:48:48;;;;;;;0.00;0.00;;;;;;;16.50;82.51;100724.91;4972593;28;20174;-73
2022/08/24 04:51:16;;;;;;;0.00;0.00;;;;;;;16.53;82.48;100726.97;4972624;28;20260;-73
2022/08/24 04:53:43;;;;;;;0.00;0.00;;;;;;;16.39;82.72;100725.72;4972198;28;20700;-73
2022/08/24 04:56:14;;;;;;;0.00;0.00;;;;;;;16.29;83.68;100732.47;4972329;28;20209;-74
2022/08/24 04:58:39;;;;;;;0.00;0.00;;;;;;;16.19;84.56;100741.97;4972392;28;20186;-73
2022/08/24 05:01:11;;;;;;;0.00;0.00;;;;;;;16.21;84.35;100738.91;4972155;28;20178;-73
2022/08/24 05:03:37;;;;;;;0.00;0.00;;;;;;;16.27;83.46;100745.78;4972155;28;20182;-72
2022/08/24 05:06:02;;;;;;;0.00;0.00;;;;;;;16.30;83.50;100750.63;4972657;28;20192;-72
2022/08/24 05:08:27;;;;;;;0.00;0.00;;;;;;;16.24;83.25;100746.50;4972311;28;20174;-72
2022/08/24 05:10:53;;;;;;;0.00;0.00;;;;;;;16.28;82.79;100744.66;4972337;28;20170;-72
2022/08/24 05:13:19;;;;;;;0.00;0.00;;;;;;;16.30;83.37;100748.66;4971967;28;20176;-72
2022/08/24 05:15:46;;;;;;;0.00;0.00;;;;;;;16.25;83.29;100753.59;4971042;28;20213;-72
2022/08/24 05:18:13;;;;;;;0.00;0.00;;;;;;;16.39;83.17;100769.84;4972680;28;20621;-72
2022/08/24 05:20:40;;;;;;;0.00;0.00;;;;;;;16.56;82.78;100769.63;4972429;28;20177;-72
2022/08/24 05:23:07;;;;;;;0.13;0.13;;;;;;;16.64;82.30;100772.28;4972408;28;20664;-72
2022/08/24 05:25:32;;;;;;;0.00;0.00;;;;;;;16.78;81.73;100768.38;4971881;28;20182;-72
2022/08/24 05:27:57;;;;;;;0.00;0.00;;;;;;;16.81;81.72;100770.47;4972404;28;20185;-72
2022/08/24 05:30:23;;;;;;;0.00;0.00;;;;;;;16.96;81.32;100772.53;4971999;28;20174;-72
2022/08/24 05:32:48;;;;;;;0.00;0.00;;;;;;;17.02;81.44;100770.34;4970902;28;20177;-72
2022/08/24 05:35:14;;;;;;;0.00;0.00;;;;;;;17.12;81.88;100772.63;4971903;28;20197;-72
2022/08/24 05:37:39;;;;;;;0.00;0.00;;;;;;;17.22;82.15;100772.16;4971943;28;20224;-72
2022/08/24 05:40:08;;;;;;;0.00;0.00;;;;;;;17.34;82.23;100783.16;4971822;28;20177;-72
2022/08/24 05:42:35;;;;;;;0.00;0.00;;;;;;;17.45;81.78;100777.97;4971862;28;20260;-72
2022/08/24 05:45:00;;;;;;;0.00;0.00;;;;;;;17.55;81.35;100771.94;4971549;28;20241;-72
2022/08/24 05:47:26;;;;;;;0.00;0.00;;;;;;;17.59;80.85;100772.84;4971804;28;20174;-72
2022/08/24 05:49:52;;;;;;;0.00;0.00;;;;;;;17.67;80.82;100780.19;4971739;28;20180;-72
2022/08/24 05:52:19;;;;;;;0.00;0.00;;;;;;;17.75;80.68;100770.97;4971840;28;20580;-73
2022/08/24 05:54:45;;;;;;;0.00;0.00;;;;;;;17.78;80.54;100775.78;4970899;28;20205;-72
2022/08/24 05:57:11;;;;;;;0.00;0.00;;;;;;;17.92;80.52;100782.88;4971673;28;20173;-73
2022/08/24 05:59:37;;;;;;;0.00;0.00;;;;;;;18.00;80.38;100776.41;4971671;28;20499;-72
2022/08/24 06:02:03;;;;;;;0.00;0.00;;;;;;;18.02;79.99;100774.09;4970949;28;20493;-73
2022/08/24 06:04:28;;;;;;;0.07;0.07;;;;;;;18.14;79.32;100782.31;4973964;28;20280;-72
2022/08/24 06:06:54;;;;;;;0.00;0.00;;;;;;;18.23;79.47;100779.41;4972903;28;20607;-73
2022/08/24 06:09:20;;;;;;;0.57;0.57;;;;;;;18.30;78.99;100783.13;4971902;28;20180;-73
2022/08/24 06:11:46;;;;;;;0.20;0.20;;;;;;;18.42;78.82;100782.25;4989457;28;20260;-73
2022/08/24 06:14:14;;;;;;;0.10;0.10;;;;;;;18.50;78.55;100789.56;4991093;28;20273;-72
2022/08/24 06:16:43;;;;;;;0.00;0.00;;;;;;;18.62;78.79;100797.00;4991312;28;20177;-72
2022/08/24 06:19:10;;;;;;;0.00;0.00;;;;;;;18.73;78.38;100795.34;4991228;28;20182;-73
2022/08/24 06:21:36;;;;;;;0.00;0.00;;;;;;;18.71;77.50;100805.97;4991027;28;20820;-73
2022/08/24 06:24:02;;;;;;;0.00;0.00;;;;;;;18.73;77.61;100800.88;4991025;28;20240;-73
2022/08/24 06:29:12;;;;;;;0.00;0.00;;;;;;;19.01;77.84;100806.28;4991480;28;20193;-72
2022/08/24 06:31:40;;;;;;;0.00;0.00;;;;;;;19.17;76.53;100815.38;4991223;28;20177;-73
2022/08/24 06:34:09;;;;;;;6.27;6.07;;;;;;;19.27;75.76;100817.59;4952215;29;21060;-72
2022/08/24 06:36:35;;;;;;;0.00;0.00;;;;;;;19.33;75.53;100813.38;4952490;28;20653;-73
2022/08/24 06:39:00;;;;;;;0.00;0.00;;;;;;;19.44;75.19;100815.59;4952489;28;20179;-73
2022/08/24 06:41:25;;;;;;;0.00;0.00;;;;;;;19.54;74.94;100809.47;4952370;28;20213;-72
2022/08/24 06:43:51;;;;;;;0.10;0.10;;;;;;;19.59;74.25;100812.78;4952253;28;20214;-73
2022/08/24 06:46:17;;;;;;;0.00;0.00;;;;;;;19.73;74.30;100815.06;4952283;28;20210;-73
2022/08/24 06:48:43;;;;;;;0.00;0.00;;;;;;;19.87;73.28;100823.69;4952397;28;20226;-73
2022/08/24 06:51:14;;;;;;;0.00;0.00;;;;;;;20.07;73.49;100823.66;4952409;28;20187;-73
2022/08/24 06:53:40;;;;;;;0.00;0.00;;;;;;;20.11;73.09;100824.56;4952234;28;20640;-72
2022/08/24 06:56:06;;;;;;;0.00;0.00;;;;;;;20.22;73.21;100828.31;4952821;28;20219;-73
2022/08/24 06:58:32;;;;;;;0.00;0.00;;;;;;;20.38;72.53;100826.22;4951007;29;20211;-73
2022/08/24 07:00:58;;;;;;;0.00;0.00;;;;;;;20.58;72.17;100823.47;4951161;29;20189;-72
2022/08/24 07:03:24;;;;;;;0.00;0.00;;;;;;;20.67;71.11;100832.34;4952182;28;20171;-73
2022/08/24 07:05:55;;;;;;;0.00;0.00;;;;;;;20.77;70.10;100835.28;4952485;28;20262;-72
2022/08/24 07:08:21;;;;;;;0.10;0.10;;;;;;;20.90;69.69;100843.44;4957825;28;20701;-72
2022/08/24 07:10:46;;;;;;;0.00;0.00;;;;;;;20.95;69.35;100838.38;4994488;28;20187;-74
2022/08/24 07:13:13;;;;;;;0.10;0.10;;;;;;;21.11;69.31;100838.22;4983931;28;20194;-74
2022/08/24 07:15:42;;;;;;;0.20;0.20;;;;;;;21.19;69.35;100839.94;4977196;28;20205;-73
2022/08/24 07:18:11;;;;;;;0.00;0.00;;;;;;;21.30;68.56;100852.06;4974588;28;20636;-74
2022/08/24 07:20:37;;;;;;;0.30;0.30;;;;;;;21.47;67.91;100847.13;4974696;28;20179;-74
2022/08/24 07:23:05;;;;;;;0.10;0.07;;;;;;;21.58;67.99;100842.53;4974382;28;20659;-73
2022/08/24 07:25:31;;;;;;;0.00;0.00;;;;;;;21.71;67.31;100848.66;4974806;28;20208;-73
2022/08/24 07:27:57;;;;;;;0.10;0.10;;;;;;;21.91;66.80;100848.13;4974553;28;20173;-74
2022/08/24 07:30:22;;;;;;;0.00;0.00;;;;;;;22.01;66.42;100848.66;4974531;28;20202;-74
2022/08/24 07:32:48;;;;;;;0.00;0.00;;;;;;;22.11;65.50;100851.56;4973238;28;20185;-72
2022/08/24 07:35:13;;;;;;;0.00;0.00;;;;;;;22.20;66.09;100845.72;4974036;28;20216;-73
2022/08/24 07:37:38;;;;;;;0.00;0.00;;;;;;;22.45;64.38;100848.78;4974125;28;20188;-73
2022/08/24 07:40:04;;;;;;;0.10;0.00;;;;;;;22.42;63.60;100850.34;4974024;28;20478;-73
2022/08/24 07:42:30;;;;;;;0.03;0.03;;;;;;;22.54;64.05;100852.03;4974124;28;20181;-72
2022/08/24 07:44:55;;;;;;;0.00;0.00;;;;;;;22.62;63.54;100856.50;4972865;28;20182;-72
2022/08/24 07:47:20;;;;;;;0.10;0.10;;;;;;;22.76;62.35;100861.41;4973812;28;20181;-72
2022/08/24 07:49:48;;;;;;;0.40;0.40;;;;;;;22.89;61.42;100859.97;4974225;28;20174;-73
2022/08/24 07:52:14;;;;;;;0.00;0.00;;;;;;;23.06;60.91;100867.66;4974101;28;20178;-73
2022/08/24 07:54:39;;;;;;;0.00;0.00;;;;;;;23.13;60.46;100870.50;4973610;28;20210;-73
2022/08/24 07:57:05;;;;;;;0.00;0.00;;;;;;;23.23;60.37;100868.19;4974296;28;20632;-73
2022/08/24 07:59:31;;;;;;;0.00;0.00;;;;;;;23.26;59.55;100872.97;4974005;28;20240;-73
2022/08/24 08:01:58;;;;;;;0.17;0.17;;;;;;;23.34;59.25;100880.22;4973967;28;20689;-73
2022/08/24 08:04:24;;;;;;;0.10;0.10;;;;;;;23.40;59.11;100876.66;4973405;28;20189;-73
2022/08/24 08:06:53;;;;;;;0.47;0.47;;;;;;;23.57;59.14;100874.38;4989256;28;20211;-72
2022/08/24 08:09:19;;;;;;;0.00;0.00;;;;;;;23.65;58.28;100873.28;4993296;28;20188;-73
2022/08/24 08:11:45;;;;;;;0.83;0.73;;;;;;;23.72;57.96;100870.50;4993078;28;20174;-73
2022/08/24 08:14:11;;;;;;;0.00;0.00;;;;;;;23.76;57.77;100878.91;4992731;28;20182;-73
2022/08/24 08:16:37;;;;;;;0.00;0.00;;;;;;;23.80;58.62;100874.94;4993030;28;20573;-73
2022/08/24 08:19:04;;;;;;;0.00;0.00;;;;;;;23.90;57.49;100884.56;4993074;28;20192;-73
2022/08/24 08:24:14;;;;;;;0.20;0.20;;;;;;;24.06;57.34;100881.47;4982871;28;20189;-73
2022/08/24 08:26:40;;;;;;;0.00;0.00;;;;;;;24.10;57.19;100866.31;4973328;28;20186;-73
2022/08/24 08:29:06;;;;;;;0.00;0.00;;;;;;;24.03;56.52;100872.69;4973350;28;20677;-72
2022/08/24 08:31:32;;;;;;;0.00;0.00;;;;;;;24.18;57.00;100870.75;4973432;28;20174;-73
2022/08/24 08:33:57;;;;;;;0.00;0.00;;;;;;;24.35;56.73;100860.84;4972971;28;20702;-72
2022/08/24 08:36:23;;;;;;;0.00;0.00;;;;;;;24.38;55.52;100862.03;4973445;28;20688;-72
2022/08/24 08:38:48;;;;;;;0.10;0.10;;;;;;;24.47;56.15;100868.06;4973241;28;20593;-72
2022/08/24 08:41:48;;;;;;;0.10;0.10;;;;;;;24.61;55.85;100862.50;4973153;28;20174;-72
2022/08/24 08:44:31;;;;;;;0.00;0.00;;;;;;;24.74;53.93;100862.91;4972887;28;20182;-72
2022/08/24 08:47:24;;;;;;;0.00;0.00;;;;;;;24.87;53.93;100862.09;4973117;28;20173;-72
2022/08/24 08:50:17;;;;;;;0.00;0.00;;;;;;;24.97;53.55;100865.31;4973448;28;20197;-72
2022/08/24 08:52:47;;;;;;;0.00;0.00;;;;;;;25.03;52.57;100866.56;4981952;28;20196;-72
2022/08/24 08:55:29;;;;;;;0.17;0.17;;;;;;;25.12;52.73;100858.53;4992038;28;20209;-72
2022/08/24 08:58:10;;;;;;;0.00;0.00;;;;;;;25.18;52.84;100854.16;4992235;28;20291;-72
2022/08/24 09:00:42;;;;;;;0.00;0.00;;;;;;;25.33;52.39;100850.13;4992429;28;20168;-71
2022/08/24 09:03:31;;;;;;;0.03;0.03;;;;;;;25.27;51.44;100853.72;4991877;28;20176;-72
2022/08/24 09:06:13;;;;;;;0.00;0.00;;;;;;;25.28;50.89;100846.94;4992194;28;20571;-72
2022/08/24 09:08:59;;;;;;;0.10;0.10;;;;;;;25.23;50.12;100850.94;4992122;28;20625;-72
2022/08/24 09:11:43;;;;;;;0.30;0.30;;;;;;;25.24;50.91;100849.75;4991853;28;20181;-72
2022/08/24 09:14:28;;;;;;;0.20;0.20;;;;;;;25.35;51.06;100844.94;4991870;28;20172;-72
2022/08/24 09:17:35;;;;;;;0.00;0.00;;;;;;;25.50;49.48;100842.91;4991932;28;20244;-71
2022/08/24 09:20:21;;;;;;;0.27;0.27;;;;;;;25.51;50.09;100841.69;4991975;28;20185;-72
2022/08/24 09:22:55;;;;;;;0.23;0.23;;;;;;;25.54;50.72;100845.69;4991467;28;20516;-72
2022/08/24 09:25:27;;;;;;;0.00;0.00;;;;;;;25.73;49.96;100845.25;4991638;28;20169;-72
2022/08/24 09:28:27;;;;;;;0.00;0.00;;;;;;;25.81;49.86;100844.03;4991863;28;20609;-72
2022/08/24 09:31:11;;;;;;;0.10;0.10;;;;;;;25.87;49.31;100836.78;4893322;29;20196;-72
2022/08/24 09:33:50;;;;;;;0.10;0.10;;;;;;;25.98;49.69;100834.75;4947823;28;20615;-72
2022/08/24 09:36:47;;;;;;;0.00;0.00;;;;;;;26.11;48.67;100843.50;4952987;28;20222;-72
2022/08/24 09:39:33;;;;;;;0.00;0.00;;;;;;;26.16;48.99;100845.06;4940988;28;20199;-72
2022/08/24 09:42:08;;;;;;;0.00;0.00;;;;;;;26.17;48.78;100836.25;4952894;28;20204;-72
2022/08/24 09:44:55;;;;;;;0.00;0.00;;;;;;;26.19;49.84;100831.06;4951410;29;20179;-72
2022/08/24 09:47:29;;;;;;;0.00;0.00;;;;;;;26.27;48.28;100829.00;4952878;28;20205;-72
2022/08/24 09:49:54;;;;;;;0.00;0.00;;;;;;;26.16;47.76;100833.88;4952931;28;20618;-72
2022/08/24 09:52:48;;;;;;;0.10;0.10;;;;;;;26.08;48.80;100833.91;4952703;28;20202;-71
2022/08/24 09:55:38;;;;;;;0.10;0.10;;;;;;;26.09;48.10;100829.09;4952438;28;20213;-72
2022/08/24 09:58:03;;;;;;;0.10;0.10;;;;;;;26.07;48.04;100835.13;4952724;28;20195;-72
2022/08/24 10:00:36;;;;;;;0.20;0.13;;;;;;;26.14;47.81;100836.28;4952886;28;20178;-72
2022/08/24 10:03:14;;;;;;;0.13;0.13;;;;;;;26.27;47.13;100838.19;4952513;28;20178;-72
2022/08/24 10:05:58;;;;;;;0.23;0.23;;;;;;;26.43;47.29;100834.94;4952586;28;20182;-72
2022/08/24 10:08:38;;;;;;;0.77;0.40;;;;;;;26.44;47.31;100830.91;4952668;28;20245;-71
2022/08/24 10:11:22;;;;;;;0.00;0.00;;;;;;;26.60;46.88;100825.59;4952802;28;20587;-72
2022/08/24 10:13:54;;;;;;;0.83;0.67;;;;;;;26.49;46.53;100827.69;4952363;28;20297;-71
2022/08/24 10:16:24;;;;;;;0.10;0.10;;;;;;;26.41;46.45;100814.94;4952548;28;20294;-71
2022/08/24 10:19:10;;;;;;;0.83;0.73;;;;;;;26.45;46.06;100818.50;4952637;28;20175;-71
2022/08/24 10:21:52;;;;;;;0.07;0.07;;;;;;;26.54;45.98;100821.66;4952114;28;20202;-72
2022/08/24 10:24:38;;;;;;;0.00;0.00;;;;;;;26.44;45.96;100816.13;4952290;28;20210;-71
2022/08/24 10:27:25;;;;;;;0.00;0.00;;;;;;;26.46;45.50;100813.69;4951060;29;20561;-72
2022/08/24 10:30:25;;;;;;;0.10;0.10;;;;;;;26.49;44.90;100805.28;4980492;28;20312;-72
2022/08/24 10:33:02;;;;;;;0.00;0.00;;;;;;;26.53;44.54;100803.25;4990811;28;20545;-72
2022/08/24 10:35:33;;;;;;;0.10;0.10;;;;;;;26.77;44.24;100807.06;4990860;28;20243;-74
2022/08/24 10:41:49;;;;;;;0.87;0.87;;;;;;;26.86;45.55;100810.16;4968312;28;20190;-74
2022/08/24 10:44:45;;;;;;;0.20;0.20;;;;;;;26.92;44.20;100811.34;4954353;28;20671;-73
2022/08/24 10:47:29;;;;;;;0.10;0.10;;;;;;;26.97;43.71;100802.47;4995007;28;20781;-73
2022/08/24 10:50:07;;;;;;;0.20;0.20;;;;;;;26.82;43.45;100800.22;4994865;28;20157;-73
2022/08/24 10:53:10;;;;;;;3.13;0.70;;;;;;;26.92;42.85;100796.53;4993324;28;20548;-73
2022/08/24 10:55:36;;;;;;;0.00;0.00;;;;;;;26.97;43.67;100790.47;4994518;28;20209;-73
2022/08/24 10:58:16;;;;;;;0.00;0.00;;;;;;;27.28;43.23;100794.97;4994609;28;20177;-73
2022/08/24 11:00:42;;;;;;;0.10;0.10;;;;;;;27.61;43.30;100800.22;4994595;28;20772;-73
2022/08/24 11:03:11;;;;;;;0.20;0.20;;;;;;;27.72;41.90;100800.91;4994478;28;20287;-73
2022/08/24 11:05:52;;;;;;;0.00;0.00;;;;;;;27.50;41.85;100792.72;4994491;28;20705;-73
2022/08/24 11:08:32;;;;;;;0.70;0.70;;;;;;;27.72;43.42;100795.31;4994390;28;20310;-73
2022/08/24 11:11:06;;;;;;;0.00;0.00;;;;;;;28.09;41.83;100795.22;4994353;28;20175;-73
2022/08/24 11:13:35;;;;;;;0.00;0.00;;;;;;;28.15;40.17;100801.94;4994263;28;20175;-73
2022/08/24 11:16:02;;;;;;;0.00;0.00;;;;;;;28.10;37.62;100790.38;4994275;28;20764;-73
2022/08/24 11:18:46;;;;;;;0.00;0.00;;;;;;;28.19;39.63;100793.44;4994293;28;20172;-73
2022/08/24 11:21:32;;;;;;;0.10;0.10;;;;;;;28.14;39.10;100788.31;4994103;28;20168;-73
2022/08/24 11:24:10;;;;;;;6.40;0.37;;;;;;;27.84;38.45;100789.91;4993658;28;20182;-73
2022/08/24 11:26:48;;;;;;;0.00;0.00;;;;;;;27.78;39.27;100785.22;4992857;28;20573;-72
2022/08/24 11:29:14;;;;;;;0.00;0.00;;;;;;;27.74;39.20;100788.03;4993639;28;20177;-73
2022/08/24 11:31:42;;;;;;;0.00;0.00;;;;;;;27.80;38.64;100779.97;4983393;28;20652;-73
2022/08/24 11:34:13;;;;;;;0.00;0.00;;;;;;;28.15;39.03;100778.66;4970333;28;20187;-73
2022/08/24 11:36:39;;;;;;;0.10;0.10;;;;;;;28.25;37.09;100780.53;4974379;28;20245;-73
2022/08/24 11:39:12;;;;;;;0.23;0.20;;;;;;;28.28;35.79;100782.50;4974127;28;20175;-74
2022/08/24 11:41:52;;;;;;;0.00;0.00;;;;;;;28.37;36.84;100785.59;4971337;28;20183;-74
2022/08/24 11:44:41;;;;;;;0.20;0.20;;;;;;;28.78;37.11;100778.09;4974319;28;20188;-74
2022/08/24 11:47:42;;;;;;;0.10;0.10;;;;;;;29.08;37.10;100777.19;4973795;28;20224;-74
2022/08/24 11:50:30;;;;;;;0.00;0.00;;;;;;;29.26;35.55;100774.84;4973461;28;20171;-74